sensor_id;sensor_type;location;lat;lon;timestamp;P1;durP1;ratioP1;P2;durP2;ratioP2
25535;SDS011;13431;51.352;6.412;2023-08-12T00:02:17;5.97;;;5.30;;
25535;SDS011;13431;51.352;6.412;2023-08-12T00:04:45;6.45;;;5.88;;
25535;SDS011;13431;51.352;6.412;2023-08-12T00:07:13;6.85;;;6.15;;
25535;SDS011;13431;51.352;6.412;2023-08-12T00:09:40;5.97;;;5.47;;
25535;SDS011;13431;51.352;6.412;2023-08-12T00:12:08;6.65;;;5.28;;
25535;SDS011;13431;51.352;6.412;2023-08-12T00:14:35;6.15;;;5.60;;
25535;SDS011;13431;51.352;6.412;2023-08-12T00:17:02;6.22;;;5.63;;
25535;SDS011;13431;51.352;6.412;2023-08-12T00:19:30;6.57;;;5.78;;
25535;SDS011;13431;51.352;6.412;2023-08-12T00:21:57;6.60;;;5.82;;
25535;SDS011;13431;51.352;6.412;2023-08-12T00:24:24;6.22;;;5.65;;
25535;SDS011;13431;51.352;6.412;2023-08-12T00:26:52;6.57;;;5.05;;
25535;SDS011;13431;51.352;6.412;2023-08-12T00:29:19;6.05;;;5.57;;
25535;SDS011;13431;51.352;6.412;2023-08-12T00:31:46;5.65;;;5.15;;
25535;SDS011;13431;51.352;6.412;2023-08-12T00:34:14;5.28;;;4.88;;
25535;SDS011;13431;51.352;6.412;2023-08-12T00:36:42;5.38;;;4.88;;
25535;SDS011;13431;51.352;6.412;2023-08-12T00:39:09;5.40;;;4.90;;
25535;SDS011;13431;51.352;6.412;2023-08-12T00:41:37;5.85;;;5.25;;
25535;SDS011;13431;51.352;6.412;2023-08-12T00:44:04;5.93;;;5.15;;
25535;SDS011;13431;51.352;6.412;2023-08-12T00:46:32;6.03;;;4.72;;
25535;SDS011;13431;51.352;6.412;2023-08-12T00:49:00;5.25;;;4.82;;
25535;SDS011;13431;51.352;6.412;2023-08-12T00:51:28;7.40;;;4.78;;
25535;SDS011;13431;51.352;6.412;2023-08-12T00:53:56;5.20;;;4.80;;
25535;SDS011;13431;51.352;6.412;2023-08-12T00:56:25;5.22;;;4.80;;
25535;SDS011;13431;51.352;6.412;2023-08-12T00:58:53;6.18;;;5.13;;
25535;SDS011;13431;51.352;6.412;2023-08-12T01:01:21;6.13;;;4.70;;
25535;SDS011;13431;51.352;6.412;2023-08-12T01:03:48;5.45;;;4.88;;
25535;SDS011;13431;51.352;6.412;2023-08-12T01:06:16;4.90;;;4.50;;
25535;SDS011;13431;51.352;6.412;2023-08-12T01:08:44;5.10;;;4.50;;
25535;SDS011;13431;51.352;6.412;2023-08-12T01:11:12;5.07;;;4.68;;
25535;SDS011;13431;51.352;6.412;2023-08-12T01:13:52;5.03;;;4.40;;
25535;SDS011;13431;51.352;6.412;2023-08-12T01:16:29;5.57;;;4.43;;
25535;SDS011;13431;51.352;6.412;2023-08-12T01:19:03;5.28;;;4.80;;
25535;SDS011;13431;51.352;6.412;2023-08-12T01:21:33;5.65;;;4.20;;
25535;SDS011;13431;51.352;6.412;2023-08-12T01:24:05;5.10;;;4.70;;
25535;SDS011;13431;51.352;6.412;2023-08-12T01:26:33;5.20;;;4.70;;
25535;SDS011;13431;51.352;6.412;2023-08-12T01:29:01;4.78;;;4.38;;
25535;SDS011;13431;51.352;6.412;2023-08-12T01:32:04;6.05;;;5.05;;
25535;SDS011;13431;51.352;6.412;2023-08-12T01:34:36;4.78;;;4.38;;
25535;SDS011;13431;51.352;6.412;2023-08-12T01:37:14;5.20;;;4.72;;
25535;SDS011;13431;51.352;6.412;2023-08-12T01:39:48;5.70;;;4.88;;
25535;SDS011;13431;51.352;6.412;2023-08-12T01:42:17;5.22;;;4.80;;
25535;SDS011;13431;51.352;6.412;2023-08-12T01:44:46;4.47;;;4.07;;
25535;SDS011;13431;51.352;6.412;2023-08-12T01:47:14;4.38;;;4.00;;
25535;SDS011;13431;51.352;6.412;2023-08-12T01:49:42;4.65;;;4.25;;
25535;SDS011;13431;51.352;6.412;2023-08-12T01:52:09;4.75;;;4.35;;
25535;SDS011;13431;51.352;6.412;2023-08-12T01:54:37;5.32;;;4.63;;
25535;SDS011;13431;51.352;6.412;2023-08-12T01:57:06;5.03;;;4.53;;
25535;SDS011;13431;51.352;6.412;2023-08-12T01:59:35;5.05;;;4.40;;
25535;SDS011;13431;51.352;6.412;2023-08-12T02:02:03;4.70;;;4.30;;
25535;SDS011;13431;51.352;6.412;2023-08-12T02:04:32;4.68;;;4.28;;
25535;SDS011;13431;51.352;6.412;2023-08-12T02:07:00;4.70;;;4.30;;
25535;SDS011;13431;51.352;6.412;2023-08-12T02:09:27;6.38;;;4.78;;
25535;SDS011;13431;51.352;6.412;2023-08-12T02:11:55;5.30;;;4.13;;
25535;SDS011;13431;51.352;6.412;2023-08-12T02:14:22;4.53;;;4.18;;
25535;SDS011;13431;51.352;6.412;2023-08-12T02:16:49;5.10;;;4.57;;
25535;SDS011;13431;51.352;6.412;2023-08-12T02:19:17;4.65;;;4.25;;
25535;SDS011;13431;51.352;6.412;2023-08-12T02:21:44;4.80;;;4.30;;
25535;SDS011;13431;51.352;6.412;2023-08-12T02:24:11;5.35;;;4.85;;
25535;SDS011;13431;51.352;6.412;2023-08-12T02:26:38;5.93;;;4.70;;
25535;SDS011;13431;51.352;6.412;2023-08-12T02:29:06;5.07;;;4.30;;
25535;SDS011;13431;51.352;6.412;2023-08-12T02:31:33;4.20;;;3.90;;
25535;SDS011;13431;51.352;6.412;2023-08-12T02:34:01;4.30;;;3.83;;
25535;SDS011;13431;51.352;6.412;2023-08-12T02:36:28;5.20;;;4.40;;
25535;SDS011;13431;51.352;6.412;2023-08-12T02:38:55;4.72;;;3.72;;
25535;SDS011;13431;51.352;6.412;2023-08-12T02:41:23;4.28;;;3.97;;
25535;SDS011;13431;51.352;6.412;2023-08-12T02:43:50;5.03;;;4.20;;
25535;SDS011;13431;51.352;6.412;2023-08-12T02:46:17;4.22;;;3.85;;
25535;SDS011;13431;51.352;6.412;2023-08-12T02:48:45;4.53;;;4.13;;
25535;SDS011;13431;51.352;6.412;2023-08-12T02:51:14;6.00;;;3.90;;
25535;SDS011;13431;51.352;6.412;2023-08-12T02:53:41;4.18;;;3.88;;
25535;SDS011;13431;51.352;6.412;2023-08-12T02:56:09;4.25;;;3.83;;
25535;SDS011;13431;51.352;6.412;2023-08-12T02:58:36;4.72;;;4.32;;
25535;SDS011;13431;51.352;6.412;2023-08-12T03:01:04;4.07;;;3.78;;
25535;SDS011;13431;51.352;6.412;2023-08-12T03:03:32;4.63;;;3.45;;
25535;SDS011;13431;51.352;6.412;2023-08-12T03:05:59;4.20;;;3.80;;
25535;SDS011;13431;51.352;6.412;2023-08-12T03:08:29;4.30;;;3.80;;
25535;SDS011;13431;51.352;6.412;2023-08-12T03:11:00;6.60;;;3.55;;
25535;SDS011;13431;51.352;6.412;2023-08-12T03:13:28;4.20;;;3.80;;
25535;SDS011;13431;51.352;6.412;2023-08-12T03:15:57;3.92;;;3.60;;
25535;SDS011;13431;51.352;6.412;2023-08-12T03:18:25;3.40;;;3.10;;
25535;SDS011;13431;51.352;6.412;2023-08-12T03:20:52;3.42;;;3.22;;
25535;SDS011;13431;51.352;6.412;2023-08-12T03:23:22;5.07;;;3.47;;
25535;SDS011;13431;51.352;6.412;2023-08-12T03:25:50;5.35;;;3.10;;
25535;SDS011;13431;51.352;6.412;2023-08-12T03:28:18;3.60;;;3.20;;
25535;SDS011;13431;51.352;6.412;2023-08-12T03:30:52;2.97;;;2.78;;
25535;SDS011;13431;51.352;6.412;2023-08-12T03:33:22;2.92;;;2.58;;
25535;SDS011;13431;51.352;6.412;2023-08-12T03:35:50;3.28;;;2.80;;
25535;SDS011;13431;51.352;6.412;2023-08-12T03:38:18;2.85;;;2.65;;
25535;SDS011;13431;51.352;6.412;2023-08-12T03:40:46;3.50;;;2.80;;
25535;SDS011;13431;51.352;6.412;2023-08-12T03:43:16;2.75;;;2.55;;
25535;SDS011;13431;51.352;6.412;2023-08-12T03:45:44;2.65;;;2.45;;
25535;SDS011;13431;51.352;6.412;2023-08-12T03:48:14;2.38;;;2.17;;
25535;SDS011;13431;51.352;6.412;2023-08-12T03:50:42;2.03;;;1.92;;
25535;SDS011;13431;51.352;6.412;2023-08-12T03:53:09;2.20;;;2.00;;
25535;SDS011;13431;51.352;6.412;2023-08-12T03:55:38;2.45;;;2.28;;
25535;SDS011;13431;51.352;6.412;2023-08-12T03:58:07;2.20;;;2.10;;
25535;SDS011;13431;51.352;6.412;2023-08-12T04:00:34;1.90;;;1.80;;
25535;SDS011;13431;51.352;6.412;2023-08-12T04:03:06;2.38;;;2.17;;
25535;SDS011;13431;51.352;6.412;2023-08-12T04:05:34;2.10;;;1.90;;
25535;SDS011;13431;51.352;6.412;2023-08-12T04:08:02;1.88;;;1.75;;
25535;SDS011;13431;51.352;6.412;2023-08-12T04:10:29;2.38;;;1.85;;
25535;SDS011;13431;51.352;6.412;2023-08-12T04:12:57;2.15;;;1.75;;
25535;SDS011;13431;51.352;6.412;2023-08-12T04:15:24;2.15;;;2.00;;
25535;SDS011;13431;51.352;6.412;2023-08-12T04:17:52;2.03;;;1.92;;
25535;SDS011;13431;51.352;6.412;2023-08-12T04:20:19;1.83;;;1.73;;
25535;SDS011;13431;51.352;6.412;2023-08-12T04:22:46;2.20;;;1.65;;
25535;SDS011;13431;51.352;6.412;2023-08-12T04:25:16;1.67;;;1.58;;
25535;SDS011;13431;51.352;6.412;2023-08-12T04:27:44;1.70;;;1.60;;
25535;SDS011;13431;51.352;6.412;2023-08-12T04:30:11;1.92;;;1.83;;
25535;SDS011;13431;51.352;6.412;2023-08-12T04:32:39;2.25;;;1.70;;
25535;SDS011;13431;51.352;6.412;2023-08-12T04:35:08;1.70;;;1.60;;
25535;SDS011;13431;51.352;6.412;2023-08-12T04:37:36;1.30;;;1.30;;
25535;SDS011;13431;51.352;6.412;2023-08-12T04:40:05;1.30;;;1.27;;
25535;SDS011;13431;51.352;6.412;2023-08-12T04:42:34;1.60;;;1.50;;
25535;SDS011;13431;51.352;6.412;2023-08-12T04:45:03;1.55;;;1.45;;
25535;SDS011;13431;51.352;6.412;2023-08-12T04:47:32;1.27;;;1.27;;
25535;SDS011;13431;51.352;6.412;2023-08-12T04:50:00;1.55;;;1.45;;
25535;SDS011;13431;51.352;6.412;2023-08-12T04:52:29;1.48;;;1.38;;
25535;SDS011;13431;51.352;6.412;2023-08-12T04:54:57;1.70;;;1.60;;
25535;SDS011;13431;51.352;6.412;2023-08-12T04:57:25;1.40;;;1.30;;
25535;SDS011;13431;51.352;6.412;2023-08-12T04:59:53;1.38;;;1.30;;
25535;SDS011;13431;51.352;6.412;2023-08-12T05:02:21;1.23;;;1.13;;
25535;SDS011;13431;51.352;6.412;2023-08-12T05:04:50;1.00;;;1.00;;
25535;SDS011;13431;51.352;6.412;2023-08-12T05:07:20;1.10;;;1.10;;
25535;SDS011;13431;51.352;6.412;2023-08-12T05:09:47;1.70;;;1.60;;
25535;SDS011;13431;51.352;6.412;2023-08-12T05:12:15;1.00;;;1.00;;
25535;SDS011;13431;51.352;6.412;2023-08-12T05:14:43;4.63;;;1.20;;
25535;SDS011;13431;51.352;6.412;2023-08-12T05:17:10;1.50;;;1.40;;
25535;SDS011;13431;51.352;6.412;2023-08-12T05:19:38;0.90;;;0.90;;
25535;SDS011;13431;51.352;6.412;2023-08-12T05:22:06;1.08;;;1.08;;
25535;SDS011;13431;51.352;6.412;2023-08-12T05:24:34;1.10;;;1.10;;
25535;SDS011;13431;51.352;6.412;2023-08-12T05:27:01;1.00;;;1.00;;
25535;SDS011;13431;51.352;6.412;2023-08-12T05:29:29;1.15;;;1.15;;
25535;SDS011;13431;51.352;6.412;2023-08-12T05:31:56;1.92;;;1.10;;
25535;SDS011;13431;51.352;6.412;2023-08-12T05:34:23;1.55;;;1.10;;
25535;SDS011;13431;51.352;6.412;2023-08-12T05:36:51;1.25;;;1.25;;
25535;SDS011;13431;51.352;6.412;2023-08-12T05:39:18;1.20;;;1.20;;
25535;SDS011;13431;51.352;6.412;2023-08-12T05:41:45;1.02;;;1.02;;
25535;SDS011;13431;51.352;6.412;2023-08-12T05:44:13;1.00;;;1.00;;
25535;SDS011;13431;51.352;6.412;2023-08-12T05:46:40;1.02;;;1.02;;
25535;SDS011;13431;51.352;6.412;2023-08-12T05:49:08;0.95;;;0.95;;
25535;SDS011;13431;51.352;6.412;2023-08-12T05:51:35;0.90;;;0.90;;
25535;SDS011;13431;51.352;6.412;2023-08-12T05:54:02;1.00;;;1.00;;
25535;SDS011;13431;51.352;6.412;2023-08-12T05:56:30;1.10;;;1.10;;
25535;SDS011;13431;51.352;6.412;2023-08-12T05:58:57;1.17;;;1.17;;
25535;SDS011;13431;51.352;6.412;2023-08-12T06:01:24;0.90;;;0.90;;
25535;SDS011;13431;51.352;6.412;2023-08-12T06:03:52;1.00;;;1.00;;
25535;SDS011;13431;51.352;6.412;2023-08-12T06:06:19;0.80;;;0.80;;
25535;SDS011;13431;51.352;6.412;2023-08-12T06:08:46;1.83;;;0.98;;
25535;SDS011;13431;51.352;6.412;2023-08-12T06:11:14;1.00;;;1.00;;
25535;SDS011;13431;51.352;6.412;2023-08-12T06:13:41;1.00;;;1.00;;
25535;SDS011;13431;51.352;6.412;2023-08-12T06:16:09;0.75;;;0.75;;
25535;SDS011;13431;51.352;6.412;2023-08-12T06:18:36;1.02;;;1.02;;
25535;SDS011;13431;51.352;6.412;2023-08-12T06:21:04;1.17;;;1.13;;
25535;SDS011;13431;51.352;6.412;2023-08-12T06:23:31;1.40;;;1.30;;
25535;SDS011;13431;51.352;6.412;2023-08-12T06:25:58;2.35;;;1.00;;
25535;SDS011;13431;51.352;6.412;2023-08-12T06:28:25;1.27;;;1.20;;
25535;SDS011;13431;51.352;6.412;2023-08-12T06:30:53;1.50;;;1.40;;
25535;SDS011;13431;51.352;6.412;2023-08-12T06:33:20;1.50;;;1.40;;
25535;SDS011;13431;51.352;6.412;2023-08-12T06:35:47;1.30;;;1.30;;
25535;SDS011;13431;51.352;6.412;2023-08-12T06:38:17;1.83;;;1.73;;
25535;SDS011;13431;51.352;6.412;2023-08-12T06:40:44;1.60;;;1.50;;
25535;SDS011;13431;51.352;6.412;2023-08-12T06:43:12;1.85;;;1.75;;
25535;SDS011;13431;51.352;6.412;2023-08-12T06:45:39;1.83;;;1.60;;
25535;SDS011;13431;51.352;6.412;2023-08-12T06:48:06;1.85;;;1.70;;
25535;SDS011;13431;51.352;6.412;2023-08-12T06:50:34;1.67;;;1.58;;
25535;SDS011;13431;51.352;6.412;2023-08-12T06:53:01;1.67;;;1.58;;
25535;SDS011;13431;51.352;6.412;2023-08-12T06:55:28;2.28;;;2.08;;
25535;SDS011;13431;51.352;6.412;2023-08-12T06:57:56;1.90;;;1.80;;
25535;SDS011;13431;51.352;6.412;2023-08-12T07:00:23;2.95;;;2.10;;
25535;SDS011;13431;51.352;6.412;2023-08-12T07:02:50;1.80;;;1.70;;
25535;SDS011;13431;51.352;6.412;2023-08-12T07:05:18;3.60;;;2.75;;
25535;SDS011;13431;51.352;6.412;2023-08-12T07:07:45;2.80;;;2.40;;
25535;SDS011;13431;51.352;6.412;2023-08-12T07:10:12;2.50;;;2.30;;
25535;SDS011;13431;51.352;6.412;2023-08-12T07:12:40;2.53;;;2.33;;
25535;SDS011;13431;51.352;6.412;2023-08-12T07:15:08;2.60;;;2.40;;
25535;SDS011;13431;51.352;6.412;2023-08-12T07:17:37;2.65;;;2.45;;
25535;SDS011;13431;51.352;6.412;2023-08-12T07:20:05;3.08;;;2.78;;
25535;SDS011;13431;51.352;6.412;2023-08-12T07:22:33;2.70;;;2.13;;
25535;SDS011;13431;51.352;6.412;2023-08-12T07:25:00;2.92;;;2.65;;
25535;SDS011;13431;51.352;6.412;2023-08-12T07:27:28;3.20;;;2.83;;
25535;SDS011;13431;51.352;6.412;2023-08-12T07:29:55;2.95;;;2.70;;
25535;SDS011;13431;51.352;6.412;2023-08-12T07:32:22;2.83;;;2.60;;
25535;SDS011;13431;51.352;6.412;2023-08-12T07:34:50;2.75;;;2.55;;
25535;SDS011;13431;51.352;6.412;2023-08-12T07:37:17;2.65;;;2.45;;
25535;SDS011;13431;51.352;6.412;2023-08-12T07:39:45;2.80;;;2.60;;
25535;SDS011;13431;51.352;6.412;2023-08-12T07:42:12;3.05;;;2.67;;
25535;SDS011;13431;51.352;6.412;2023-08-12T07:44:40;2.63;;;2.42;;
25535;SDS011;13431;51.352;6.412;2023-08-12T07:47:07;3.30;;;3.00;;
25535;SDS011;13431;51.352;6.412;2023-08-12T07:49:35;2.83;;;2.60;;
25535;SDS011;13431;51.352;6.412;2023-08-12T07:52:02;2.50;;;2.30;;
25535;SDS011;13431;51.352;6.412;2023-08-12T07:54:30;2.53;;;2.33;;
25535;SDS011;13431;51.352;6.412;2023-08-12T07:56:57;3.05;;;2.47;;
25535;SDS011;13431;51.352;6.412;2023-08-12T07:59:24;3.00;;;2.70;;
25535;SDS011;13431;51.352;6.412;2023-08-12T08:01:52;3.83;;;2.58;;
25535;SDS011;13431;51.352;6.412;2023-08-12T08:04:19;2.80;;;2.33;;
25535;SDS011;13431;51.352;6.412;2023-08-12T08:06:47;5.18;;;2.45;;
25535;SDS011;13431;51.352;6.412;2023-08-12T08:09:17;2.58;;;2.38;;
25535;SDS011;13431;51.352;6.412;2023-08-12T08:11:44;3.05;;;2.85;;
25535;SDS011;13431;51.352;6.412;2023-08-12T08:14:11;3.60;;;2.80;;
25535;SDS011;13431;51.352;6.412;2023-08-12T08:16:39;3.60;;;2.75;;
25535;SDS011;13431;51.352;6.412;2023-08-12T08:19:08;2.80;;;2.60;;
25535;SDS011;13431;51.352;6.412;2023-08-12T08:21:39;4.30;;;3.13;;
25535;SDS011;13431;51.352;6.412;2023-08-12T08:24:07;2.95;;;2.75;;
25535;SDS011;13431;51.352;6.412;2023-08-12T08:26:38;3.10;;;2.63;;
25535;SDS011;13431;51.352;6.412;2023-08-12T08:29:07;2.80;;;2.38;;
25535;SDS011;13431;51.352;6.412;2023-08-12T08:31:35;3.20;;;3.00;;
25535;SDS011;13431;51.352;6.412;2023-08-12T08:34:03;3.13;;;2.92;;
25535;SDS011;13431;51.352;6.412;2023-08-12T08:36:32;4.38;;;2.58;;
25535;SDS011;13431;51.352;6.412;2023-08-12T08:39:00;2.70;;;2.50;;
25535;SDS011;13431;51.352;6.412;2023-08-12T08:41:27;3.25;;;2.20;;
25535;SDS011;13431;51.352;6.412;2023-08-12T08:44:01;3.08;;;2.35;;
25535;SDS011;13431;51.352;6.412;2023-08-12T08:46:32;4.00;;;2.20;;
25535;SDS011;13431;51.352;6.412;2023-08-12T08:48:59;2.75;;;2.25;;
25535;SDS011;13431;51.352;6.412;2023-08-12T08:51:30;2.83;;;2.63;;
25535;SDS011;13431;51.352;6.412;2023-08-12T08:53:59;2.50;;;2.15;;
25535;SDS011;13431;51.352;6.412;2023-08-12T08:56:31;1.90;;;1.80;;
25535;SDS011;13431;51.352;6.412;2023-08-12T08:59:01;1.80;;;1.70;;
25535;SDS011;13431;51.352;6.412;2023-08-12T09:01:28;1.80;;;1.70;;
25535;SDS011;13431;51.352;6.412;2023-08-12T09:03:57;1.63;;;1.58;;
25535;SDS011;13431;51.352;6.412;2023-08-12T09:06:25;3.38;;;1.80;;
25535;SDS011;13431;51.352;6.412;2023-08-12T09:08:54;1.80;;;1.70;;
25535;SDS011;13431;51.352;6.412;2023-08-12T09:11:22;1.65;;;1.55;;
25535;SDS011;13431;51.352;6.412;2023-08-12T09:13:50;4.03;;;1.80;;
25535;SDS011;13431;51.352;6.412;2023-08-12T09:16:17;1.98;;;1.75;;
25535;SDS011;13431;51.352;6.412;2023-08-12T09:18:45;3.75;;;2.10;;
25535;SDS011;13431;51.352;6.412;2023-08-12T09:21:12;2.45;;;2.00;;
25535;SDS011;13431;51.352;6.412;2023-08-12T09:23:40;1.80;;;1.70;;
25535;SDS011;13431;51.352;6.412;2023-08-12T09:26:18;1.63;;;1.52;;
25535;SDS011;13431;51.352;6.412;2023-08-12T09:28:46;6.05;;;1.80;;
25535;SDS011;13431;51.352;6.412;2023-08-12T09:31:29;1.95;;;1.45;;
25535;SDS011;13431;51.352;6.412;2023-08-12T09:33:59;2.75;;;1.55;;
25535;SDS011;13431;51.352;6.412;2023-08-12T09:36:31;2.40;;;1.50;;
25535;SDS011;13431;51.352;6.412;2023-08-12T09:38:58;2.45;;;1.60;;
25535;SDS011;13431;51.352;6.412;2023-08-12T09:41:26;1.58;;;1.48;;
25535;SDS011;13431;51.352;6.412;2023-08-12T09:43:58;1.70;;;1.52;;
25535;SDS011;13431;51.352;6.412;2023-08-12T09:46:25;1.67;;;1.55;;
25535;SDS011;13431;51.352;6.412;2023-08-12T09:48:53;1.58;;;1.20;;
25535;SDS011;13431;51.352;6.412;2023-08-12T09:51:20;2.20;;;1.40;;
25535;SDS011;13431;51.352;6.412;2023-08-12T09:53:51;1.80;;;1.50;;
25535;SDS011;13431;51.352;6.412;2023-08-12T09:56:19;2.70;;;1.40;;
25535;SDS011;13431;51.352;6.412;2023-08-12T09:58:50;2.28;;;1.40;;
25535;SDS011;13431;51.352;6.412;2023-08-12T10:01:19;1.58;;;1.48;;
25535;SDS011;13431;51.352;6.412;2023-08-12T10:03:50;1.63;;;1.30;;
25535;SDS011;13431;51.352;6.412;2023-08-12T10:06:20;1.45;;;1.35;;
25535;SDS011;13431;51.352;6.412;2023-08-12T10:08:48;1.48;;;1.38;;
25535;SDS011;13431;51.352;6.412;2023-08-12T10:11:17;1.20;;;1.10;;
25535;SDS011;13431;51.352;6.412;2023-08-12T10:13:45;1.83;;;1.40;;
25535;SDS011;13431;51.352;6.412;2023-08-12T10:16:13;1.55;;;1.30;;
25535;SDS011;13431;51.352;6.412;2023-08-12T10:18:41;1.60;;;1.35;;
25535;SDS011;13431;51.352;6.412;2023-08-12T10:21:10;1.35;;;1.33;;
25535;SDS011;13431;51.352;6.412;2023-08-12T10:23:38;1.38;;;1.27;;
25535;SDS011;13431;51.352;6.412;2023-08-12T10:26:10;1.48;;;1.38;;
25535;SDS011;13431;51.352;6.412;2023-08-12T10:28:39;3.00;;;1.50;;
25535;SDS011;13431;51.352;6.412;2023-08-12T10:31:06;2.65;;;1.20;;
25535;SDS011;13431;51.352;6.412;2023-08-12T10:33:35;3.90;;;1.23;;
25535;SDS011;13431;51.352;6.412;2023-08-12T10:36:06;1.10;;;1.00;;
25535;SDS011;13431;51.352;6.412;2023-08-12T10:38:34;1.55;;;1.45;;
25535;SDS011;13431;51.352;6.412;2023-08-12T10:41:17;1.23;;;1.20;;
25535;SDS011;13431;51.352;6.412;2023-08-12T10:46:42;1.42;;;1.10;;
25535;SDS011;13431;51.352;6.412;2023-08-12T10:49:18;1.27;;;1.27;;
25535;SDS011;13431;51.352;6.412;2023-08-12T10:51:51;1.30;;;1.20;;
25535;SDS011;13431;51.352;6.412;2023-08-12T10:54:24;1.45;;;1.35;;
25535;SDS011;13431;51.352;6.412;2023-08-12T11:02:16;1.35;;;1.25;;
25535;SDS011;13431;51.352;6.412;2023-08-12T11:04:48;1.30;;;1.30;;
25535;SDS011;13431;51.352;6.412;2023-08-12T11:07:20;1.38;;;1.20;;
25535;SDS011;13431;51.352;6.412;2023-08-12T11:09:58;2.33;;;1.30;;
25535;SDS011;13431;51.352;6.412;2023-08-12T11:12:31;1.40;;;1.30;;
25535;SDS011;13431;51.352;6.412;2023-08-12T11:15:01;2.83;;;1.45;;
25535;SDS011;13431;51.352;6.412;2023-08-12T11:20:03;1.85;;;1.30;;
25535;SDS011;13431;51.352;6.412;2023-08-12T11:22:37;2.22;;;1.73;;
25535;SDS011;13431;51.352;6.412;2023-08-12T11:25:07;1.50;;;1.40;;
25535;SDS011;13431;51.352;6.412;2023-08-12T11:27:46;2.67;;;1.52;;
25535;SDS011;13431;51.352;6.412;2023-08-12T11:30:15;1.40;;;1.30;;
25535;SDS011;13431;51.352;6.412;2023-08-12T11:32:47;1.90;;;1.50;;
25535;SDS011;13431;51.352;6.412;2023-08-12T11:35:16;2.35;;;1.45;;
25535;SDS011;13431;51.352;6.412;2023-08-12T11:37:45;3.28;;;1.30;;
25535;SDS011;13431;51.352;6.412;2023-08-12T11:40:15;1.52;;;1.42;;
25535;SDS011;13431;51.352;6.412;2023-08-12T11:42:45;1.67;;;1.58;;
25535;SDS011;13431;51.352;6.412;2023-08-12T11:45:19;2.05;;;1.95;;
25535;SDS011;13431;51.352;6.412;2023-08-12T11:47:50;1.90;;;1.80;;
25535;SDS011;13431;51.352;6.412;2023-08-12T11:50:23;1.85;;;1.75;;
25535;SDS011;13431;51.352;6.412;2023-08-12T11:52:52;2.35;;;2.15;;
25535;SDS011;13431;51.352;6.412;2023-08-12T11:55:22;2.28;;;2.10;;
25535;SDS011;13431;51.352;6.412;2023-08-12T11:57:50;1.90;;;1.80;;
25535;SDS011;13431;51.352;6.412;2023-08-12T12:00:19;1.80;;;1.70;;
25535;SDS011;13431;51.352;6.412;2023-08-12T12:02:54;1.65;;;1.55;;
25535;SDS011;13431;51.352;6.412;2023-08-12T12:05:23;2.08;;;1.98;;
25535;SDS011;13431;51.352;6.412;2023-08-12T12:07:53;2.17;;;2.08;;
25535;SDS011;13431;51.352;6.412;2023-08-12T12:10:28;3.03;;;2.17;;
25535;SDS011;13431;51.352;6.412;2023-08-12T12:13:02;2.30;;;2.20;;
25535;SDS011;13431;51.352;6.412;2023-08-12T12:15:31;2.20;;;2.00;;
25535;SDS011;13431;51.352;6.412;2023-08-12T12:18:09;2.30;;;2.20;;
25535;SDS011;13431;51.352;6.412;2023-08-12T12:20:42;2.88;;;2.30;;
25535;SDS011;13431;51.352;6.412;2023-08-12T12:23:20;2.72;;;2.45;;
25535;SDS011;13431;51.352;6.412;2023-08-12T12:25:48;2.45;;;2.35;;
25535;SDS011;13431;51.352;6.412;2023-08-12T12:28:15;2.30;;;2.20;;
25535;SDS011;13431;51.352;6.412;2023-08-12T12:30:42;2.10;;;1.90;;
25535;SDS011;13431;51.352;6.412;2023-08-12T12:33:10;2.65;;;2.10;;
25535;SDS011;13431;51.352;6.412;2023-08-12T12:35:37;2.60;;;2.10;;
25535;SDS011;13431;51.352;6.412;2023-08-12T12:40:49;2.33;;;2.17;;
25535;SDS011;13431;51.352;6.412;2023-08-12T12:43:17;2.92;;;2.55;;
25535;SDS011;13431;51.352;6.412;2023-08-12T12:45:44;9.23;;;2.58;;
25535;SDS011;13431;51.352;6.412;2023-08-12T12:48:11;6.50;;;3.20;;
25535;SDS011;13431;51.352;6.412;2023-08-12T12:50:39;2.90;;;2.65;;
25535;SDS011;13431;51.352;6.412;2023-08-12T12:53:06;2.65;;;2.47;;
25535;SDS011;13431;51.352;6.412;2023-08-12T12:55:33;2.60;;;2.40;;
25535;SDS011;13431;51.352;6.412;2023-08-12T12:58:01;2.55;;;2.40;;
25535;SDS011;13431;51.352;6.412;2023-08-12T13:00:28;2.60;;;2.40;;
25535;SDS011;13431;51.352;6.412;2023-08-12T13:02:55;2.95;;;2.75;;
25535;SDS011;13431;51.352;6.412;2023-08-12T13:05:23;4.57;;;2.90;;
25535;SDS011;13431;51.352;6.412;2023-08-12T13:07:50;3.58;;;2.83;;
25535;SDS011;13431;51.352;6.412;2023-08-12T13:10:17;2.63;;;2.42;;
25535;SDS011;13431;51.352;6.412;2023-08-12T13:12:45;3.00;;;2.80;;
25535;SDS011;13431;51.352;6.412;2023-08-12T13:15:12;2.78;;;2.58;;
25535;SDS011;13431;51.352;6.412;2023-08-12T13:17:40;3.10;;;2.90;;
25535;SDS011;13431;51.352;6.412;2023-08-12T13:20:07;3.08;;;2.88;;
25535;SDS011;13431;51.352;6.412;2023-08-12T13:22:36;3.70;;;3.28;;
25535;SDS011;13431;51.352;6.412;2023-08-12T13:25:03;2.65;;;2.53;;
25535;SDS011;13431;51.352;6.412;2023-08-12T13:27:31;4.15;;;3.05;;
25535;SDS011;13431;51.352;6.412;2023-08-12T13:29:59;6.07;;;3.10;;
25535;SDS011;13431;51.352;6.412;2023-08-12T13:32:26;2.92;;;2.70;;
25535;SDS011;13431;51.352;6.412;2023-08-12T13:34:54;3.20;;;3.00;;
25535;SDS011;13431;51.352;6.412;2023-08-12T13:37:21;4.75;;;4.15;;
25535;SDS011;13431;51.352;6.412;2023-08-12T13:39:48;3.80;;;3.47;;
25535;SDS011;13431;51.352;6.412;2023-08-12T13:42:16;3.75;;;3.55;;
25535;SDS011;13431;51.352;6.412;2023-08-12T13:44:44;3.13;;;2.92;;
25535;SDS011;13431;51.352;6.412;2023-08-12T13:47:11;3.38;;;3.08;;
25535;SDS011;13431;51.352;6.412;2023-08-12T13:49:38;5.30;;;3.42;;
25535;SDS011;13431;51.352;6.412;2023-08-12T13:52:05;3.38;;;3.17;;
25535;SDS011;13431;51.352;6.412;2023-08-12T13:54:33;3.40;;;3.20;;
25535;SDS011;13431;51.352;6.412;2023-08-12T13:57:00;4.00;;;3.20;;
25535;SDS011;13431;51.352;6.412;2023-08-12T13:59:29;3.63;;;3.33;;
25535;SDS011;13431;51.352;6.412;2023-08-12T14:01:57;3.67;;;3.38;;
25535;SDS011;13431;51.352;6.412;2023-08-12T14:04:24;3.97;;;3.33;;
25535;SDS011;13431;51.352;6.412;2023-08-12T14:06:51;3.78;;;3.47;;
25535;SDS011;13431;51.352;6.412;2023-08-12T14:09:19;5.13;;;3.40;;
25535;SDS011;13431;51.352;6.412;2023-08-12T14:11:46;3.20;;;2.90;;
25535;SDS011;13431;51.352;6.412;2023-08-12T14:14:14;4.28;;;3.17;;
25535;SDS011;13431;51.352;6.412;2023-08-12T14:16:41;3.15;;;2.50;;
25535;SDS011;13431;51.352;6.412;2023-08-12T14:19:09;2.67;;;2.40;;
25535;SDS011;13431;51.352;6.412;2023-08-12T14:21:36;4.72;;;3.10;;
25535;SDS011;13431;51.352;6.412;2023-08-12T14:24:03;3.40;;;3.10;;
25535;SDS011;13431;51.352;6.412;2023-08-12T14:26:31;3.83;;;3.13;;
25535;SDS011;13431;51.352;6.412;2023-08-12T14:28:58;3.38;;;3.08;;
25535;SDS011;13431;51.352;6.412;2023-08-12T14:31:26;4.20;;;3.13;;
25535;SDS011;13431;51.352;6.412;2023-08-12T14:33:53;3.72;;;3.42;;
25535;SDS011;13431;51.352;6.412;2023-08-12T14:36:20;2.88;;;2.67;;
25535;SDS011;13431;51.352;6.412;2023-08-12T14:38:48;3.83;;;2.95;;
25535;SDS011;13431;51.352;6.412;2023-08-12T14:41:16;2.80;;;2.60;;
25535;SDS011;13431;51.352;6.412;2023-08-12T14:43:44;6.70;;;2.97;;
25535;SDS011;13431;51.352;6.412;2023-08-12T14:46:11;2.78;;;2.58;;
25535;SDS011;13431;51.352;6.412;2023-08-12T14:48:39;3.45;;;2.50;;
25535;SDS011;13431;51.352;6.412;2023-08-12T14:51:06;4.20;;;2.65;;
25535;SDS011;13431;51.352;6.412;2023-08-12T14:53:33;6.60;;;2.40;;
25535;SDS011;13431;51.352;6.412;2023-08-12T14:56:01;3.38;;;2.88;;
25535;SDS011;13431;51.352;6.412;2023-08-12T14:58:28;3.83;;;2.80;;
25535;SDS011;13431;51.352;6.412;2023-08-12T15:00:55;2.90;;;2.47;;
25535;SDS011;13431;51.352;6.412;2023-08-12T15:03:23;3.80;;;2.25;;
25535;SDS011;13431;51.352;6.412;2023-08-12T15:05:58;4.18;;;2.55;;
25535;SDS011;13431;51.352;6.412;2023-08-12T15:08:27;2.83;;;2.22;;
25535;SDS011;13431;51.352;6.412;2023-08-12T15:10:55;2.63;;;2.42;;